createdAt,value
2022-11-03T00:00:13.065Z,1012.30
2022-11-03T00:01:12.636Z,1012.29
2022-11-03T00:02:12.671Z,1012.30
2022-11-03T00:03:11.869Z,1012.30
2022-11-03T00:04:12.788Z,1012.24
2022-11-03T00:05:12.526Z,1012.21
2022-11-03T00:06:12.519Z,1012.22
2022-11-03T00:07:11.827Z,1012.26
2022-11-03T00:09:11.835Z,1012.20
2022-11-03T00:10:11.789Z,1012.20
2022-11-03T00:11:12.462Z,1012.19
2022-11-03T00:12:11.785Z,1012.19
2022-11-03T00:13:12.444Z,1012.14
2022-11-03T00:14:12.434Z,1012.13
2022-11-03T00:15:12.435Z,1012.10
2022-11-03T00:16:12.427Z,1012.09
2022-11-03T00:17:11.724Z,1012.08
2022-11-03T00:18:12.440Z,1012.09
2022-11-03T00:19:11.684Z,1012.09
2022-11-03T00:20:11.781Z,1012.13
2022-11-03T00:21:12.351Z,1012.11
2022-11-03T00:22:11.649Z,1012.10
2022-11-03T00:23:12.335Z,1012.07
2022-11-03T00:24:11.633Z,1012.13
2022-11-03T00:25:11.636Z,1012.13
2022-11-03T00:26:12.290Z,1012.14
2022-11-03T00:27:11.608Z,1012.13
2022-11-03T00:28:12.280Z,1012.07
2022-11-03T00:29:11.591Z,1012.14
2022-11-03T00:30:12.246Z,1012.10
2022-11-03T00:31:12.411Z,1012.10
2022-11-03T00:32:11.582Z,1012.10
2022-11-03T00:33:12.237Z,1012.09
2022-11-03T00:34:12.213Z,1012.09
2022-11-03T00:35:12.456Z,1012.05
2022-11-03T00:36:12.186Z,1012.04
2022-11-03T00:37:12.321Z,1012.08
2022-11-03T00:38:11.594Z,1012.03
2022-11-03T00:39:12.158Z,1012.06
2022-11-03T00:40:12.152Z,1011.99
2022-11-03T00:41:12.127Z,1011.99
2022-11-03T00:42:11.426Z,1012.02
2022-11-03T00:43:11.437Z,1011.98
2022-11-03T00:44:12.467Z,1011.97
2022-11-03T00:45:12.096Z,1011.98
2022-11-03T00:46:12.087Z,1011.99
2022-11-03T00:47:11.368Z,1011.98
2022-11-03T00:48:12.065Z,1011.91
2022-11-03T00:49:12.048Z,1011.93
2022-11-03T00:50:11.369Z,1011.97
2022-11-03T00:51:12.019Z,1011.94
2022-11-03T00:52:11.358Z,1011.93
2022-11-03T00:53:11.308Z,1011.90
2022-11-03T00:54:11.996Z,1011.93
2022-11-03T00:55:12.210Z,1011.97
2022-11-03T00:56:11.959Z,1011.96
2022-11-03T00:57:11.957Z,1011.93
2022-11-03T00:58:11.960Z,1011.94
2022-11-03T00:59:11.938Z,1011.92
2022-11-03T01:00:11.231Z,1011.90
2022-11-03T01:01:12.019Z,1011.89
2022-11-03T01:02:11.432Z,1011.95
2022-11-03T01:03:12.122Z,1011.95
2022-11-03T01:04:11.872Z,1011.94
2022-11-03T01:05:11.872Z,1011.95
2022-11-03T01:06:11.176Z,1011.91
2022-11-03T01:07:11.862Z,1011.90
2022-11-03T01:08:11.920Z,1011.89
2022-11-03T01:09:11.822Z,1011.89
2022-11-03T01:10:11.123Z,1011.88
2022-11-03T01:11:12.075Z,1011.87
2022-11-03T01:12:11.795Z,1011.89
2022-11-03T01:13:11.784Z,1011.86
2022-11-03T01:14:11.894Z,1011.85
2022-11-03T01:15:11.063Z,1011.86
2022-11-03T01:16:11.754Z,1011.85
2022-11-03T01:17:11.072Z,1011.90
2022-11-03T01:18:11.048Z,1011.78
2022-11-03T01:19:11.975Z,1011.80
2022-11-03T01:20:12.565Z,1011.76
2022-11-03T01:21:11.687Z,1011.78
2022-11-03T01:22:11.687Z,1011.75
2022-11-03T01:23:11.672Z,1011.72
2022-11-03T01:24:11.377Z,1011.71
2022-11-03T01:25:11.646Z,1011.65
2022-11-03T01:26:11.712Z,1011.74
2022-11-03T01:27:11.626Z,1011.71
2022-11-03T01:28:10.944Z,1011.71
2022-11-03T01:29:11.844Z,1011.64
2022-11-03T01:30:11.600Z,1011.65
2022-11-03T01:31:11.588Z,1011.65
2022-11-03T01:32:11.003Z,1011.61
2022-11-03T01:33:10.927Z,1011.56
2022-11-03T01:34:10.879Z,1011.57
2022-11-03T01:35:10.887Z,1011.56
2022-11-03T01:36:10.849Z,1011.47
2022-11-03T01:37:10.839Z,1011.49
2022-11-03T01:38:10.890Z,1011.48
2022-11-03T01:39:11.499Z,1011.48
2022-11-03T01:40:11.631Z,1011.47
2022-11-03T01:41:11.476Z,1011.41
2022-11-03T01:42:10.781Z,1011.40
2022-11-03T01:43:11.451Z,1011.43
2022-11-03T01:44:11.522Z,1011.35
2022-11-03T01:45:11.430Z,1011.33
2022-11-03T01:46:10.731Z,1011.29
2022-11-03T01:47:11.411Z,1011.30
2022-11-03T01:48:11.412Z,1011.24
2022-11-03T01:49:11.400Z,1011.29
2022-11-03T01:50:10.727Z,1011.27
2022-11-03T01:51:11.373Z,1011.27
2022-11-03T01:52:10.711Z,1011.21
2022-11-03T01:53:11.583Z,1011.14
2022-11-03T01:54:11.526Z,1011.18
2022-11-03T01:55:11.316Z,1011.11
2022-11-03T01:56:10.644Z,1011.11
2022-11-03T01:57:12.044Z,1011.04
2022-11-03T01:58:10.604Z,1011.03
2022-11-03T01:59:11.177Z,1011.06
2022-11-03T02:00:10.634Z,1010.96
2022-11-03T02:01:11.295Z,1010.96
2022-11-03T02:02:10.774Z,1010.91
2022-11-03T02:03:10.555Z,1010.99
2022-11-03T02:04:11.226Z,1010.94
2022-11-03T02:05:11.215Z,1010.97
2022-11-03T02:06:11.215Z,1010.88
2022-11-03T02:07:10.497Z,1010.92
2022-11-03T02:08:10.514Z,1010.86
2022-11-03T02:09:10.506Z,1010.85
2022-11-03T02:10:10.696Z,1010.90
2022-11-03T02:11:10.487Z,1010.89
2022-11-03T02:12:10.499Z,1010.87
2022-11-03T02:13:11.127Z,1010.86
2022-11-03T02:14:10.435Z,1010.87
2022-11-03T02:15:10.426Z,1010.87
2022-11-03T02:16:11.098Z,1010.89
2022-11-03T02:17:11.103Z,1010.79
2022-11-03T02:18:11.090Z,1010.83
2022-11-03T02:19:11.073Z,1010.82
2022-11-03T02:20:10.399Z,1010.80
2022-11-03T02:21:11.045Z,1010.81
2022-11-03T02:22:11.037Z,1010.80
2022-11-03T02:23:10.588Z,1010.77
2022-11-03T02:24:11.772Z,1010.77
2022-11-03T02:25:10.307Z,1010.77
2022-11-03T02:26:10.979Z,1010.78
2022-11-03T02:27:10.300Z,1010.78
2022-11-03T02:28:10.292Z,1010.76
2022-11-03T02:29:10.950Z,1010.74
2022-11-03T02:30:11.832Z,1010.72
2022-11-03T02:31:10.261Z,1010.70
2022-11-03T02:32:10.246Z,1010.72
2022-11-03T02:33:10.296Z,1010.63
2022-11-03T02:34:10.252Z,1010.63
2022-11-03T02:35:10.890Z,1010.69
2022-11-03T02:36:10.212Z,1010.66
2022-11-03T02:37:10.185Z,1010.60
2022-11-03T02:38:10.354Z,1010.59
2022-11-03T02:39:10.845Z,1010.57
2022-11-03T02:40:10.142Z,1010.54
2022-11-03T02:41:10.824Z,1010.50
2022-11-03T02:42:10.801Z,1010.37
2022-11-03T02:43:10.797Z,1010.44
2022-11-03T02:44:10.785Z,1010.40
2022-11-03T02:45:13.326Z,1010.43
2022-11-03T02:46:11.075Z,1010.39
2022-11-03T02:47:10.759Z,1010.35
2022-11-03T02:48:10.709Z,1010.38
2022-11-03T02:49:10.733Z,1010.37
2022-11-03T02:50:10.065Z,1010.37
2022-11-03T02:51:10.716Z,1010.36
2022-11-03T02:52:10.704Z,1010.37
2022-11-03T02:53:10.084Z,1010.36
2022-11-03T02:54:09.998Z,1010.37
2022-11-03T02:55:10.034Z,1010.38
2022-11-03T02:56:10.657Z,1010.35
2022-11-03T02:57:09.969Z,1010.35
2022-11-03T02:58:10.627Z,1010.28
2022-11-03T02:59:10.702Z,1010.31
2022-11-03T03:00:10.622Z,1010.29
2022-11-03T03:01:10.743Z,1010.31
2022-11-03T03:02:10.661Z,1010.26
2022-11-03T03:03:10.586Z,1010.29
2022-11-03T03:04:10.569Z,1010.21
2022-11-03T03:05:10.550Z,1010.20
2022-11-03T03:06:09.891Z,1010.24
2022-11-03T03:07:09.870Z,1010.23
2022-11-03T03:08:10.520Z,1010.22
2022-11-03T03:09:10.511Z,1010.19
2022-11-03T03:10:09.819Z,1010.23
2022-11-03T03:11:10.475Z,1010.15
2022-11-03T03:12:09.821Z,1010.09
2022-11-03T03:13:10.044Z,1010.16
2022-11-03T03:14:09.785Z,1010.12
2022-11-03T03:15:09.803Z,1010.09
2022-11-03T03:16:09.750Z,1010.09
2022-11-03T03:17:10.432Z,1010.09
2022-11-03T03:18:09.772Z,1010.09
2022-11-03T03:19:10.405Z,1010.11
2022-11-03T03:20:10.393Z,1010.00
2022-11-03T03:21:10.392Z,1010.07
2022-11-03T03:22:10.622Z,1010.00
2022-11-03T03:23:11.805Z,1010.05
2022-11-03T03:24:10.363Z,1010.06
2022-11-03T03:25:10.350Z,1010.02
2022-11-03T03:26:09.649Z,1010.03
2022-11-03T03:27:09.623Z,1010.03
2022-11-03T03:28:09.623Z,1010.04
2022-11-03T03:29:09.624Z,1009.98
2022-11-03T03:30:10.284Z,1009.99
2022-11-03T03:31:10.265Z,1010.02
2022-11-03T03:32:09.595Z,1010.03
2022-11-03T03:33:10.411Z,1010.08
2022-11-03T03:34:31.282Z,1010.02
2022-11-03T03:35:11.211Z,1010.00
2022-11-03T03:36:10.216Z,1010.08
2022-11-03T03:37:10.205Z,1010.01
2022-11-03T03:38:10.206Z,1009.99
2022-11-03T03:39:10.186Z,1009.97
2022-11-03T03:40:10.917Z,1010.00
2022-11-03T03:41:11.007Z,1010.01
2022-11-03T03:42:09.956Z,1009.97
2022-11-03T03:43:10.139Z,1009.98
2022-11-03T03:44:09.468Z,1009.98
2022-11-03T03:45:09.429Z,1009.92
2022-11-03T03:46:10.107Z,1009.91
2022-11-03T03:47:09.436Z,1009.88
2022-11-03T03:48:09.728Z,1009.88
2022-11-03T03:49:09.400Z,1009.88
2022-11-03T03:50:09.380Z,1009.83
2022-11-03T03:51:09.380Z,1009.86
2022-11-03T03:52:10.039Z,1009.79
2022-11-03T03:53:09.380Z,1009.83
2022-11-03T03:54:09.343Z,1009.81
2022-11-03T03:55:10.147Z,1009.81
2022-11-03T03:56:09.312Z,1009.80
2022-11-03T03:57:09.311Z,1009.79
2022-11-03T03:58:09.525Z,1009.77
2022-11-03T03:59:09.326Z,1009.73
2022-11-03T04:00:09.962Z,1009.69
2022-11-03T04:01:09.310Z,1009.74
2022-11-03T04:02:09.381Z,1009.72
2022-11-03T04:03:09.249Z,1009.70
2022-11-03T04:04:09.910Z,1009.74
2022-11-03T04:05:09.997Z,1009.74
2022-11-03T04:06:09.892Z,1009.76
2022-11-03T04:07:10.633Z,1009.69
2022-11-03T04:08:09.297Z,1009.71
2022-11-03T04:09:09.194Z,1009.73
2022-11-03T04:10:09.853Z,1009.72
2022-11-03T04:11:09.189Z,1009.73
2022-11-03T04:12:09.133Z,1009.66
2022-11-03T04:13:11.905Z,1009.64
2022-11-03T04:14:09.335Z,1009.76
2022-11-03T04:15:09.625Z,1009.72
2022-11-03T04:16:10.854Z,1009.68
2022-11-03T04:17:09.107Z,1009.72
2022-11-03T04:18:10.909Z,1009.63
2022-11-03T04:19:09.235Z,1009.66
2022-11-03T04:20:09.138Z,1009.62
2022-11-03T04:21:09.072Z,1009.60
2022-11-03T04:22:09.712Z,1009.59
2022-11-03T04:23:09.026Z,1009.60
2022-11-03T04:24:09.048Z,1009.60
2022-11-03T04:25:08.997Z,1009.56
2022-11-03T04:26:10.427Z,1009.51
2022-11-03T04:27:08.972Z,1009.53
2022-11-03T04:28:09.080Z,1009.54
2022-11-03T04:29:09.646Z,1009.51
2022-11-03T04:30:09.209Z,1009.54
2022-11-03T04:31:08.948Z,1009.57
2022-11-03T04:32:09.291Z,1009.44
2022-11-03T04:33:09.599Z,1009.46
2022-11-03T04:34:09.690Z,1009.44
2022-11-03T04:35:09.583Z,1009.42
2022-11-03T04:36:08.920Z,1009.50
2022-11-03T04:37:09.582Z,1009.38
2022-11-03T04:38:09.801Z,1009.40
2022-11-03T04:39:09.558Z,1009.43
2022-11-03T04:40:09.502Z,1009.41
2022-11-03T04:41:08.943Z,1009.35
2022-11-03T04:42:08.826Z,1009.35
2022-11-03T04:43:09.613Z,1009.34
2022-11-03T04:44:09.481Z,1009.34
2022-11-03T04:45:09.462Z,1009.32
2022-11-03T04:46:09.446Z,1009.25
2022-11-03T04:47:09.447Z,1009.27
2022-11-03T04:48:08.764Z,1009.28
2022-11-03T04:49:09.423Z,1009.26
2022-11-03T04:50:09.402Z,1009.22
2022-11-03T04:51:09.395Z,1009.21
2022-11-03T04:52:09.486Z,1009.24
2022-11-03T04:53:09.037Z,1009.18
2022-11-03T04:54:08.684Z,1009.16
2022-11-03T04:55:08.664Z,1009.15
2022-11-03T04:56:09.343Z,1009.13
2022-11-03T04:57:11.557Z,1009.10
2022-11-03T04:58:11.512Z,1009.12
2022-11-03T04:59:08.688Z,1009.06
2022-11-03T05:00:08.657Z,1009.10
2022-11-03T05:01:08.642Z,1009.08
2022-11-03T05:03:09.450Z,1009.07
2022-11-03T05:04:09.330Z,1009.06
2022-11-03T05:05:09.240Z,1009.07
2022-11-03T05:06:08.559Z,1009.03
2022-11-03T05:07:10.470Z,1008.95
2022-11-03T05:08:09.217Z,1009.00
2022-11-03T05:09:08.507Z,1008.97
2022-11-03T05:10:08.527Z,1008.96
2022-11-03T05:11:10.430Z,1008.93
2022-11-03T05:12:09.168Z,1008.89
2022-11-03T05:13:09.503Z,1008.90
2022-11-03T05:14:09.888Z,1008.90
2022-11-03T05:15:09.129Z,1008.85
2022-11-03T05:16:09.102Z,1008.86
2022-11-03T05:17:09.108Z,1008.85
2022-11-03T05:18:09.107Z,1008.81
2022-11-03T05:19:08.401Z,1008.83
2022-11-03T05:20:09.081Z,1008.80
2022-11-03T05:21:09.069Z,1008.78
2022-11-03T05:22:08.390Z,1008.82
2022-11-03T05:23:09.358Z,1008.78
2022-11-03T05:24:09.064Z,1008.75
2022-11-03T05:25:09.021Z,1008.77
2022-11-03T05:26:08.332Z,1008.73
2022-11-03T05:27:08.313Z,1008.73
2022-11-03T05:28:08.718Z,1008.71
2022-11-03T05:29:08.284Z,1008.71
2022-11-03T05:30:08.964Z,1008.65
2022-11-03T05:31:08.952Z,1008.66
2022-11-03T05:32:08.596Z,1008.64
2022-11-03T05:33:08.932Z,1008.60
2022-11-03T05:34:08.252Z,1008.56
2022-11-03T05:35:08.235Z,1008.61
2022-11-03T05:36:08.218Z,1008.59
2022-11-03T05:37:08.232Z,1008.62
2022-11-03T05:38:08.476Z,1008.55
2022-11-03T05:39:08.204Z,1008.58
2022-11-03T05:40:08.927Z,1008.52
2022-11-03T05:41:08.843Z,1008.57
2022-11-03T05:42:09.085Z,1008.60
2022-11-03T05:43:12.153Z,1008.58
2022-11-03T05:44:08.126Z,1008.54
2022-11-03T05:45:08.799Z,1008.41
2022-11-03T05:46:08.154Z,1008.43
2022-11-03T05:47:08.450Z,1008.55
2022-11-03T05:48:09.004Z,1008.52
2022-11-03T05:49:08.755Z,1008.44
2022-11-03T05:50:08.055Z,1008.44
2022-11-03T05:51:08.737Z,1008.52
2022-11-03T05:52:08.706Z,1008.41
2022-11-03T05:53:08.717Z,1008.46
2022-11-03T05:54:08.697Z,1008.41
2022-11-03T05:55:08.009Z,1008.44
2022-11-03T05:56:08.678Z,1008.45
2022-11-03T05:57:08.009Z,1008.44
2022-11-03T05:58:08.981Z,1008.37
2022-11-03T05:59:08.648Z,1008.43
2022-11-03T06:00:08.631Z,1008.43
2022-11-03T06:01:07.948Z,1008.44
2022-11-03T06:02:09.498Z,1008.41
2022-11-03T06:03:07.921Z,1008.36
2022-11-03T06:04:08.581Z,1008.38
2022-11-03T06:05:07.890Z,1008.40
2022-11-03T06:06:08.600Z,1008.39
2022-11-03T06:07:08.561Z,1008.32
2022-11-03T06:08:08.840Z,1008.39
2022-11-03T06:09:08.542Z,1008.34
2022-11-03T06:10:08.512Z,1008.35
2022-11-03T06:11:08.520Z,1008.34
2022-11-03T06:12:08.501Z,1008.32
2022-11-03T06:13:08.962Z,1008.35
2022-11-03T06:14:08.482Z,1008.32
2022-11-03T06:15:08.472Z,1008.29
2022-11-03T06:16:08.451Z,1008.26
2022-11-03T06:17:08.452Z,1008.25
2022-11-03T06:18:07.744Z,1008.24
2022-11-03T06:19:07.763Z,1008.29
2022-11-03T06:20:08.423Z,1008.24
2022-11-03T06:21:08.438Z,1008.23
2022-11-03T06:22:08.683Z,1008.15
2022-11-03T06:23:07.966Z,1008.15
2022-11-03T06:24:08.421Z,1008.14
2022-11-03T06:25:08.384Z,1008.13
2022-11-03T06:26:07.674Z,1008.10
2022-11-03T06:27:08.337Z,1008.11
2022-11-03T06:28:08.635Z,1008.08
2022-11-03T06:29:07.647Z,1008.05
2022-11-03T06:30:07.638Z,1008.09
2022-11-03T06:31:07.617Z,1008.15
2022-11-03T06:32:08.299Z,1008.10
2022-11-03T06:33:08.573Z,1008.10
2022-11-03T06:34:08.250Z,1008.09
2022-11-03T06:35:07.570Z,1008.11
2022-11-03T06:36:07.556Z,1008.06
2022-11-03T06:37:12.524Z,1008.05
2022-11-03T06:38:09.228Z,1008.05
2022-11-03T06:39:08.209Z,1008.04
2022-11-03T06:40:07.555Z,1008.04
2022-11-03T06:41:08.191Z,1007.97
2022-11-03T06:42:08.460Z,1007.99
2022-11-03T06:43:08.461Z,1007.99
2022-11-03T06:44:08.160Z,1007.97
2022-11-03T06:45:08.149Z,1007.94
2022-11-03T06:46:08.118Z,1007.91
2022-11-03T06:47:07.559Z,1007.92
2022-11-03T06:48:07.435Z,1007.85
2022-11-03T06:49:08.119Z,1007.84
2022-11-03T06:50:08.880Z,1007.81
2022-11-03T06:51:08.161Z,1007.86
2022-11-03T06:52:08.852Z,1007.87
2022-11-03T06:53:08.346Z,1007.90
2022-11-03T06:54:08.051Z,1007.83
2022-11-03T06:55:12.112Z,1007.90
2022-11-03T06:56:08.351Z,1007.83
2022-11-03T06:57:07.331Z,1007.89
2022-11-03T06:58:07.991Z,1007.86
2022-11-03T06:59:08.002Z,1007.87
2022-11-03T07:00:28.448Z,1007.92
2022-11-03T07:01:08.374Z,1007.86
2022-11-03T07:02:08.330Z,1007.85
2022-11-03T07:03:08.476Z,1007.86
2022-11-03T07:04:07.382Z,1007.79
2022-11-03T07:05:07.511Z,1007.79
2022-11-03T07:06:07.934Z,1007.76
2022-11-03T07:07:07.905Z,1007.72
2022-11-03T07:08:07.895Z,1007.74
2022-11-03T07:09:08.145Z,1007.71
2022-11-03T07:10:07.304Z,1007.68
2022-11-03T07:11:07.555Z,1007.73
2022-11-03T07:12:07.864Z,1007.70
2022-11-03T07:13:07.949Z,1007.72
2022-11-03T07:14:07.157Z,1007.73
2022-11-03T07:15:08.603Z,1007.73
2022-11-03T07:16:07.816Z,1007.72
2022-11-03T07:17:07.806Z,1007.86
2022-11-03T07:18:08.106Z,1007.74
2022-11-03T07:19:07.780Z,1007.82
2022-11-03T07:20:07.768Z,1007.75
2022-11-03T07:21:07.059Z,1007.86
2022-11-03T07:22:08.045Z,1007.82
2022-11-03T07:23:07.045Z,1007.83
2022-11-03T07:24:07.737Z,1007.79
2022-11-03T07:25:07.019Z,1007.81
2022-11-03T07:26:07.709Z,1007.74
2022-11-03T07:27:07.779Z,1007.75
2022-11-03T07:28:08.031Z,1007.72
2022-11-03T07:29:06.988Z,1007.69
2022-11-03T07:30:07.664Z,1007.71
2022-11-03T07:31:11.185Z,1007.66
2022-11-03T07:32:07.990Z,1007.65
2022-11-03T07:33:06.952Z,1007.61
2022-11-03T07:34:07.621Z,1007.66
2022-11-03T07:35:07.618Z,1007.54
2022-11-03T07:36:15.528Z,1007.52
2022-11-03T07:37:07.916Z,1007.57
2022-11-03T07:38:08.536Z,1007.55
2022-11-03T07:39:07.572Z,1007.59
2022-11-03T07:40:07.556Z,1007.54
2022-11-03T07:41:06.852Z,1007.54
2022-11-03T07:42:08.285Z,1007.58
2022-11-03T07:43:07.523Z,1007.49
2022-11-03T07:44:06.853Z,1007.49
2022-11-03T07:45:06.813Z,1007.59
2022-11-03T07:46:07.487Z,1007.54
2022-11-03T07:47:07.477Z,1007.53
2022-11-03T07:48:07.694Z,1007.51
2022-11-03T07:49:07.464Z,1007.52
2022-11-03T07:50:07.525Z,1007.50
2022-11-03T07:51:07.432Z,1007.47
2022-11-03T07:52:06.763Z,1007.42
2022-11-03T07:53:07.656Z,1007.45
2022-11-03T07:54:07.406Z,1007.37
2022-11-03T07:55:06.708Z,1007.40
2022-11-03T07:56:06.817Z,1007.39
2022-11-03T07:57:07.369Z,1007.39
2022-11-03T07:58:07.680Z,1007.38
2022-11-03T07:59:07.347Z,1007.36
2022-11-03T08:00:10.233Z,1007.36
2022-11-03T08:01:06.638Z,1007.34
2022-11-03T08:02:07.359Z,1007.28
2022-11-03T08:03:07.552Z,1007.34
2022-11-03T08:04:07.291Z,1007.27
2022-11-03T08:05:07.312Z,1007.34
2022-11-03T08:06:09.108Z,1007.36
2022-11-03T08:07:06.560Z,1007.35
2022-11-03T08:08:07.659Z,1007.30
2022-11-03T08:09:06.565Z,1007.30
2022-11-03T08:10:06.549Z,1007.29
2022-11-03T08:11:07.277Z,1007.32
2022-11-03T08:12:07.231Z,1007.32
2022-11-03T08:13:06.816Z,1007.32
2022-11-03T08:14:06.671Z,1007.29
2022-11-03T08:15:07.164Z,1007.27
2022-11-03T08:16:06.471Z,1007.25
2022-11-03T08:17:07.153Z,1007.27
2022-11-03T08:18:07.139Z,1007.31
2022-11-03T08:19:06.434Z,1007.27
2022-11-03T08:20:07.893Z,1007.29
2022-11-03T08:21:07.112Z,1007.23
2022-11-03T08:22:07.093Z,1007.18
2022-11-03T08:24:08.074Z,1007.13
2022-11-03T08:25:07.053Z,1007.17
2022-11-03T08:26:07.133Z,1007.19
2022-11-03T08:27:07.036Z,1007.08
2022-11-03T08:28:07.028Z,1007.08
2022-11-03T08:29:07.026Z,1007.11
2022-11-03T08:30:06.315Z,1007.09
2022-11-03T08:31:11.179Z,1007.06
2022-11-03T08:32:07.966Z,1007.09
2022-11-03T08:33:07.213Z,1007.02
2022-11-03T08:34:06.297Z,1007.04
2022-11-03T08:35:06.960Z,1007.06
2022-11-03T08:36:06.937Z,1006.94
2022-11-03T08:37:06.926Z,1007.03
2022-11-03T08:38:07.180Z,1006.99
2022-11-03T08:39:06.907Z,1006.94
2022-11-03T08:40:06.197Z,1006.93
2022-11-03T08:41:06.208Z,1006.90
2022-11-03T08:42:06.198Z,1006.92
2022-11-03T08:43:06.863Z,1006.93
2022-11-03T08:44:06.947Z,1006.91
2022-11-03T08:45:06.148Z,1006.85
2022-11-03T08:46:16.678Z,1006.81
2022-11-03T08:47:08.560Z,1006.94
2022-11-03T08:48:06.434Z,1006.85
2022-11-03T08:49:06.800Z,1006.85
2022-11-03T08:50:06.152Z,1006.81
2022-11-03T08:51:06.778Z,1006.81
2022-11-03T08:52:06.768Z,1006.84
2022-11-03T08:53:07.513Z,1006.84
2022-11-03T08:54:06.742Z,1006.87
2022-11-03T08:55:06.063Z,1006.78
2022-11-03T08:56:10.402Z,1006.79
2022-11-03T08:57:07.022Z,1006.76
2022-11-03T08:58:06.318Z,1006.81
2022-11-03T08:59:06.691Z,1006.80
2022-11-03T09:00:06.680Z,1006.71
2022-11-03T09:01:07.973Z,1006.73
2022-11-03T09:02:06.729Z,1006.79
2022-11-03T09:03:06.672Z,1006.75
2022-11-03T09:04:06.694Z,1006.73
2022-11-03T09:05:06.623Z,1006.77
2022-11-03T09:06:05.928Z,1006.76
2022-11-03T09:07:06.594Z,1006.79
2022-11-03T09:10:26.363Z,1006.72
2022-11-03T09:11:07.546Z,1006.70
2022-11-03T09:12:06.535Z,1006.70
2022-11-03T09:13:06.197Z,1006.65
2022-11-03T09:14:06.489Z,1006.64
2022-11-03T09:15:05.826Z,1006.63
2022-11-03T09:16:05.827Z,1006.68
2022-11-03T09:17:05.819Z,1006.70
2022-11-03T09:18:06.156Z,1006.68
2022-11-03T09:19:06.467Z,1006.60
2022-11-03T09:20:06.447Z,1006.59
2022-11-03T09:21:06.447Z,1006.61
2022-11-03T09:22:06.445Z,1006.57
2022-11-03T09:23:06.424Z,1006.57
2022-11-03T09:24:06.681Z,1006.57
2022-11-03T09:25:06.406Z,1006.51
2022-11-03T09:26:06.381Z,1006.51
2022-11-03T09:27:05.689Z,1006.57
2022-11-03T09:28:07.554Z,1006.53
2022-11-03T09:29:06.357Z,1006.48
2022-11-03T09:30:13.316Z,1006.52
2022-11-03T09:31:06.742Z,1006.50
2022-11-03T09:32:06.331Z,1006.52
2022-11-03T09:33:06.312Z,1006.42
2022-11-03T09:34:06.311Z,1006.41
2022-11-03T09:35:07.601Z,1006.37
2022-11-03T09:36:06.283Z,1006.41
2022-11-03T09:37:06.351Z,1006.31
2022-11-03T09:38:06.892Z,1006.35
2022-11-03T09:39:06.245Z,1006.32
2022-11-03T09:40:06.994Z,1006.21
2022-11-03T09:41:13.633Z,1006.20
2022-11-03T09:42:08.004Z,1006.18
2022-11-03T09:43:05.792Z,1006.18
2022-11-03T09:44:06.455Z,1006.13
2022-11-03T09:45:06.184Z,1006.08
2022-11-03T09:46:06.189Z,1006.07
2022-11-03T09:47:06.167Z,1006.03
2022-11-03T09:48:06.161Z,1006.05
2022-11-03T09:49:06.147Z,1005.99
2022-11-03T09:50:06.301Z,1006.01
2022-11-03T09:51:06.125Z,1006.00
2022-11-03T09:52:06.119Z,1006.00
2022-11-03T09:53:06.407Z,1005.95
2022-11-03T09:54:06.187Z,1005.89
2022-11-03T09:55:07.347Z,1005.94
2022-11-03T09:56:06.105Z,1005.88
2022-11-03T09:57:07.341Z,1005.87
2022-11-03T09:58:05.603Z,1005.85
2022-11-03T09:59:06.040Z,1005.74
2022-11-03T10:00:06.314Z,1005.74
2022-11-03T10:01:06.092Z,1005.66
2022-11-03T10:02:06.110Z,1005.64
2022-11-03T10:03:05.800Z,1005.61
2022-11-03T10:04:05.988Z,1005.62
2022-11-03T10:05:11.012Z,1005.58
2022-11-03T10:06:07.624Z,1005.62
2022-11-03T10:07:05.960Z,1005.54
2022-11-03T10:08:05.252Z,1005.53
2022-11-03T10:09:05.931Z,1005.48
2022-11-03T10:10:05.922Z,1005.48
2022-11-03T10:11:05.220Z,1005.59
2022-11-03T10:12:05.882Z,1005.51
2022-11-03T10:13:05.540Z,1005.49
2022-11-03T10:14:05.872Z,1005.50
2022-11-03T10:15:06.111Z,1005.50
2022-11-03T10:16:07.102Z,1005.51
2022-11-03T10:17:06.093Z,1005.50
2022-11-03T10:18:05.184Z,1005.51
2022-11-03T10:19:06.074Z,1005.50
2022-11-03T10:20:05.149Z,1005.37
2022-11-03T10:21:05.816Z,1005.44
2022-11-03T10:22:05.105Z,1005.48
2022-11-03T10:23:05.994Z,1005.48
2022-11-03T10:24:05.755Z,1005.44
2022-11-03T10:25:05.754Z,1005.42
2022-11-03T10:26:06.046Z,1005.39
2022-11-03T10:27:05.036Z,1005.42
2022-11-03T10:28:05.048Z,1005.40
2022-11-03T10:29:05.739Z,1005.39
2022-11-03T10:30:05.692Z,1005.40
2022-11-03T10:31:11.747Z,1005.33
2022-11-03T10:32:06.929Z,1005.36
2022-11-03T10:33:05.953Z,1005.38
2022-11-03T10:34:06.908Z,1005.36
2022-11-03T10:35:06.367Z,1005.32
2022-11-03T10:36:05.050Z,1005.31
2022-11-03T10:37:06.888Z,1005.26
2022-11-03T10:38:05.620Z,1005.25
2022-11-03T10:39:05.608Z,1005.25
2022-11-03T10:40:07.077Z,1005.21
2022-11-03T10:41:05.579Z,1005.20
2022-11-03T10:42:05.570Z,1005.14
2022-11-03T10:43:05.826Z,1005.14
2022-11-03T10:44:06.800Z,1005.14
2022-11-03T10:45:06.793Z,1005.11
2022-11-03T10:46:08.079Z,1005.02
2022-11-03T10:47:05.760Z,1005.06
2022-11-03T10:48:06.772Z,1004.99
2022-11-03T10:50:05.474Z,1004.90
2022-11-03T10:51:05.466Z,1004.87
2022-11-03T10:52:06.724Z,1004.84
2022-11-03T10:53:06.998Z,1004.93
2022-11-03T10:54:05.446Z,1004.84
2022-11-03T10:55:05.703Z,1004.74
2022-11-03T10:56:05.414Z,1004.77
2022-11-03T10:57:05.674Z,1004.75
2022-11-03T10:58:05.648Z,1004.76
2022-11-03T10:59:05.655Z,1004.72
2022-11-03T11:00:05.363Z,1004.72
2022-11-03T11:01:05.447Z,1004.67
2022-11-03T11:02:04.803Z,1004.65
2022-11-03T11:03:06.844Z,1004.67
2022-11-03T11:04:05.397Z,1004.61
2022-11-03T11:05:04.637Z,1004.59
2022-11-03T11:06:05.297Z,1004.56
2022-11-03T11:07:05.296Z,1004.53
2022-11-03T11:08:05.356Z,1004.50
2022-11-03T11:09:05.276Z,1004.43
2022-11-03T11:10:05.267Z,1004.39
2022-11-03T11:11:05.260Z,1004.45
2022-11-03T11:12:05.241Z,1004.41
2022-11-03T11:13:05.500Z,1004.39
2022-11-03T11:14:05.224Z,1004.37
2022-11-03T11:15:05.949Z,1004.34
2022-11-03T11:16:05.472Z,1004.35
2022-11-03T11:17:04.521Z,1004.32
2022-11-03T11:18:05.242Z,1004.32
2022-11-03T11:19:05.161Z,1004.26
2022-11-03T11:20:05.440Z,1004.27
2022-11-03T11:21:05.151Z,1004.26
2022-11-03T11:22:04.461Z,1004.15
2022-11-03T11:23:04.942Z,1004.18
2022-11-03T11:24:05.893Z,1004.14
2022-11-03T11:25:05.111Z,1004.13
2022-11-03T11:26:05.092Z,1004.12
2022-11-03T11:27:05.085Z,1004.16
2022-11-03T11:28:04.412Z,1004.10
2022-11-03T11:29:05.055Z,1004.04
2022-11-03T11:30:04.403Z,1004.01
2022-11-03T11:31:05.794Z,1004.00
2022-11-03T11:32:04.356Z,1004.00
2022-11-03T11:33:04.615Z,1003.99
2022-11-03T11:34:05.016Z,1003.98
2022-11-03T11:35:04.322Z,1003.96
2022-11-03T11:36:04.327Z,1004.04
2022-11-03T11:37:04.973Z,1004.06
2022-11-03T11:38:04.966Z,1004.06
2022-11-03T11:39:04.963Z,1004.04
2022-11-03T11:40:04.288Z,1004.02
2022-11-03T11:41:04.943Z,1003.96
2022-11-03T11:42:04.908Z,1003.92
2022-11-03T11:43:05.340Z,1003.91
2022-11-03T11:44:04.899Z,1003.94
2022-11-03T11:45:05.151Z,1003.73
2022-11-03T11:46:04.210Z,1003.81
2022-11-03T11:47:04.873Z,1003.71
2022-11-03T11:48:04.188Z,1003.66
2022-11-03T11:49:04.175Z,1003.60
2022-11-03T11:50:04.839Z,1003.60
2022-11-03T11:51:05.081Z,1003.64
2022-11-03T11:52:05.559Z,1003.63
2022-11-03T11:53:05.421Z,1003.56
2022-11-03T11:54:17.405Z,1003.59
2022-11-03T11:55:06.040Z,1003.51
2022-11-03T11:56:04.773Z,1003.45
2022-11-03T11:57:04.757Z,1003.57
2022-11-03T11:58:04.084Z,1003.51
2022-11-03T11:59:04.757Z,1003.49
2022-11-03T12:00:04.084Z,1003.49
2022-11-03T12:01:04.715Z,1003.48
2022-11-03T12:02:04.965Z,1003.51
2022-11-03T12:03:04.137Z,1003.32
2022-11-03T12:04:04.813Z,1003.32
2022-11-03T12:05:03.998Z,1003.26
2022-11-03T12:06:04.013Z,1003.22
2022-11-03T12:07:03.975Z,1003.22
2022-11-03T12:08:04.137Z,1003.16
2022-11-03T12:09:03.945Z,1003.11
2022-11-03T12:10:04.616Z,1003.23
2022-11-03T12:11:04.651Z,1003.23